Time;durP1;ratioP1;P1;durP2;ratioP2;P2;SDS_P1;SDS_P2;PMS_P1;PMS_P2;Temp;Humidity;BMP_temperature;BMP_pressure;BME280_temperature;BME280_humidity;BME280_pressure;Samples;Min_cycle;Max_cycle;Signal;HPM_P1;HPM_P2
2022/02/08 00:00:04;;;;;;;;;;;11.40;99.90;;;;;;5030896;28;19925;-88
2022/02/08 00:02:35;;;;;;;;;;;11.40;99.90;;;;;;5043986;28;19924;-89
2022/02/08 00:05:06;;;;;;;;;;;11.40;99.90;;;;;;5046500;28;19929;-89
2022/02/08 00:07:34;;;;;;;;;;;10.30;99.90;;;;;;5047471;28;19929;-89
2022/02/08 00:10:22;;;;;;;;;;;11.20;99.90;;;;;;5046540;28;19925;-89
2022/02/08 00:12:51;;;;;;;;;;;11.40;99.90;;;;;;5046926;28;19929;-89
2022/02/08 00:15:25;;;;;;;;;;;11.40;99.90;;;;;;5046893;28;19940;-89
2022/02/08 00:17:54;;;;;;;;;;;11.30;99.90;;;;;;5046310;28;19924;-88
2022/02/08 00:20:22;;;;;;;;;;;11.30;99.90;;;;;;5062994;28;19939;-88
2022/02/08 00:22:50;;;;;;;;;;;11.30;99.90;;;;;;5048019;28;19940;-88
2022/02/08 00:25:19;;;;;;;;;;;10.60;99.90;;;;;;5046162;28;19924;-89
2022/02/08 00:27:47;;;;;;;;;;;11.40;99.90;;;;;;5044928;28;19936;-88
2022/02/08 00:30:17;;;;;;;;;;;11.30;99.90;;;;;;5047367;28;20268;-88
2022/02/08 00:32:45;;;;;;;;;;;11.30;99.90;;;;;;5047456;28;19925;-87
2022/02/08 00:35:14;;;;;;;;;;;11.20;99.90;;;;;;5031414;28;19935;-88
2022/02/08 00:37:41;;;;;;;;;;;11.20;99.90;;;;;;5026905;28;19928;-88
2022/02/08 00:40:09;;;;;;;;;;;11.20;99.90;;;;;;5024944;28;19924;-89
2022/02/08 00:42:39;;;;;;;;;;;11.20;99.90;;;;;;5028949;28;19928;-88
2022/02/08 00:47:51;;;;;;;;;;;11.20;99.90;;;;;;5027140;28;19936;-88
2022/02/08 00:50:20;;;;;;;;;;;11.10;99.90;;;;;;5060520;28;19924;-89
2022/02/08 00:52:49;;;;;;;;;;;11.10;99.90;;;;;;5010832;28;19929;-89
2022/02/08 00:55:16;;;;;;;;;;;11.10;99.90;;;;;;5061172;28;19932;-88
2022/02/08 00:57:46;;;;;;;;;;;11.10;99.90;;;;;;5039053;28;19935;-88
2022/02/08 01:00:14;;;;;;;;;;;11.10;99.90;;;;;;5039572;28;19929;-88
2022/02/08 01:02:43;;;;;;;;;;;11.10;99.90;;;;;;5055104;28;19933;-89
2022/02/08 01:05:21;;;;;;;;;;;11.10;99.90;;;;;;5057214;28;19929;-88
2022/02/08 01:07:48;;;;;;;;;;;11.10;99.90;;;;;;5033587;28;19929;-89
2022/02/08 01:10:22;;;;;;;;;;;11.10;99.90;;;;;;5057931;28;19925;-88
2022/02/08 01:12:51;;;;;;;;;;;11.10;99.90;;;;;;5039080;28;19932;-88
2022/02/08 01:15:31;;;;;;;;;;;11.10;99.90;;;;;;5042141;28;19952;-89
2022/02/08 01:18:00;;;;;;;;;;;11.10;99.90;;;;;;5040336;28;19932;-89
2022/02/08 01:20:33;;;;;;;;;;;11.10;99.90;;;;;;5053323;28;19940;-89
2022/02/08 01:23:05;;;;;;;;;;;11.10;99.90;;;;;;5024070;28;19925;-89
2022/02/08 01:25:43;;;;;;;;;;;11.30;99.90;;;;;;5029641;28;19925;-89
2022/02/08 01:28:30;;;;;;;;;;;11.10;99.90;;;;;;5047426;28;19947;-89
2022/02/08 01:31:02;;;;;;;;;;;12.80;99.90;;;;;;5024647;28;19925;-88
2022/02/08 01:36:37;;;;;;;;;;;11.10;99.90;;;;;;5021933;28;19932;-89
2022/02/08 01:39:30;;;;;;;;;;;11.10;99.90;;;;;;5037216;28;19936;-90
2022/02/08 01:44:58;;;;;;;;;;;11.10;99.90;;;;;;5019236;28;19929;-89
2022/02/08 01:47:44;;;;;;;;;;;11.10;99.90;;;;;;5040360;28;19928;-89
2022/02/08 01:50:14;;;;;;;;;;;11.10;99.90;;;;;;5043261;28;19939;-89
2022/02/08 01:52:44;;;;;;;;;;;11.10;99.90;;;;;;5044839;28;19935;-89
2022/02/08 01:55:21;;;;;;;;;;;11.10;99.90;;;;;;5059978;28;19931;-89
2022/02/08 01:58:09;;;;;;;;;;;11.10;99.90;;;;;;5044990;28;19928;-89
2022/02/08 02:00:36;;;;;;;;;;;11.20;99.90;;;;;;5040007;28;19924;-91
2022/02/08 02:03:05;;;;;;;;;;;11.10;99.90;;;;;;5056635;28;20296;-89
2022/02/08 02:05:34;;;;;;;;;;;11.10;99.90;;;;;;5040364;28;19932;-89
2022/02/08 02:08:05;;;;;;;;;;;11.10;99.90;;;;;;5057409;28;19928;-89
2022/02/08 02:10:37;;;;;;;;;;;11.10;99.90;;;;;;5028768;28;19936;-88
2022/02/08 02:13:12;;;;;;;;;;;11.10;99.90;;;;;;5048426;28;19924;-88
2022/02/08 02:15:43;;;;;;;;;;;11.20;99.90;;;;;;5046299;28;20385;-88
2022/02/08 02:18:11;;;;;;;;;;;11.10;99.90;;;;;;5047574;28;19929;-89
2022/02/08 02:20:39;;;;;;;;;;;11.10;99.90;;;;;;5043527;28;19932;-89
2022/02/08 02:23:08;;;;;;;;;;;11.10;99.90;;;;;;5059531;28;19941;-89
2022/02/08 02:25:36;;;;;;;;;;;11.10;99.90;;;;;;5041092;28;19925;-89
2022/02/08 02:28:05;;;;;;;;;;;11.10;99.90;;;;;;5068583;28;19924;-88
2022/02/08 02:30:34;;;;;;;;;;;11.20;99.90;;;;;;5027935;28;19935;-89
2022/02/08 02:33:07;;;;;;;;;;;11.10;99.90;;;;;;5053154;28;19932;-89
2022/02/08 02:35:37;;;;;;;;;;;10.50;99.90;;;;;;5007970;28;19925;-89
2022/02/08 02:38:06;;;;;;;;;;;11.10;99.90;;;;;;4701204;28;9999728;-89
2022/02/08 02:40:41;;;;;;;;;;;11.10;99.90;;;;;;5035327;28;19924;-89
2022/02/08 02:43:10;;;;;;;;;;;11.10;99.90;;;;;;5024919;28;19925;-88
2022/02/08 02:45:39;;;;;;;;;;;11.10;99.90;;;;;;5056911;28;19925;-89
2022/02/08 02:48:10;;;;;;;;;;;11.10;99.90;;;;;;5024563;28;20377;-89
2022/02/08 02:50:51;;;;;;;;;;;11.10;99.90;;;;;;5007291;28;19932;-89
2022/02/08 02:53:26;;;;;;;;;;;11.10;99.90;;;;;;5025769;28;19924;-89
2022/02/08 02:55:56;;;;;;;;;;;11.10;99.90;;;;;;5025884;28;20396;-89
2022/02/08 02:58:30;;;;;;;;;;;11.10;99.90;;;;;;5022569;28;19926;-89
2022/02/08 03:01:20;;;;;;;;;;;11.10;99.90;;;;;;5033385;28;19924;-88
2022/02/08 03:04:08;;;;;;;;;;;11.10;99.90;;;;;;5004536;28;19929;-89
2022/02/08 03:20:24;;;;;;;;;;;11.10;99.90;;;;;;5041949;28;19929;-89
2022/02/08 03:22:57;;;;;;;;;;;11.10;99.90;;;;;;5009468;28;19929;-89
2022/02/08 03:25:28;;;;;;;;;;;11.10;99.90;;;;;;5025627;28;19929;-89
2022/02/08 03:28:01;;;;;;;;;;;10.90;99.90;;;;;;5017513;28;19925;-88
2022/02/08 03:30:30;;;;;;;;;;;11.10;99.90;;;;;;5037221;28;19929;-89
2022/02/08 03:32:58;;;;;;;;;;;10.90;99.90;;;;;;5045629;28;19925;-89
2022/02/08 03:35:29;;;;;;;;;;;11.10;99.90;;;;;;5044417;28;19925;-89
2022/02/08 03:38:01;;;;;;;;;;;11.10;99.90;;;;;;5027663;28;19932;-89
2022/02/08 03:40:47;;;;;;;;;;;11.10;99.90;;;;;;5044439;28;20424;-89
2022/02/08 03:43:27;;;;;;;;;;;11.10;99.90;;;;;;5011907;28;19925;-89
2022/02/08 03:45:59;;;;;;;;;;;11.10;99.90;;;;;;5060525;28;19940;-89
2022/02/08 03:48:34;;;;;;;;;;;11.10;99.90;;;;;;5027269;28;19931;-89
2022/02/08 03:51:29;;;;;;;;;;;11.10;99.90;;;;;;5030811;28;19928;-89
2022/02/08 03:54:05;;;;;;;;;;;11.10;99.90;;;;;;5045621;28;19924;-89
2022/02/08 03:56:34;;;;;;;;;;;11.10;99.90;;;;;;5045693;28;19932;-89
2022/02/08 03:59:05;;;;;;;;;;;11.10;99.90;;;;;;5058164;28;19916;-89
2022/02/08 04:02:04;;;;;;;;;;;11.10;99.90;;;;;;5077100;28;19928;-88
2022/02/08 04:07:17;;;;;;;;;;;11.00;99.90;;;;;;5067638;28;19994;-89
2022/02/08 04:09:52;;;;;;;;;;;11.10;99.90;;;;;;5028749;28;19925;-89
2022/02/08 04:12:28;;;;;;;;;;;11.10;99.90;;;;;;5061145;28;19932;-90
2022/02/08 04:31:24;;;;;;;;;;;11.10;99.90;;;;;;5043614;28;19924;-89
2022/02/08 04:37:32;;;;;;;;;;;11.10;99.90;;;;;;5078360;28;19933;-89
2022/02/08 04:40:35;;;;;;;;;;;11.10;99.90;;;;;;5060968;28;19925;-88
2022/02/08 04:43:11;;;;;;;;;;;11.10;99.90;;;;;;5061973;28;19929;-89
2022/02/08 04:45:50;;;;;;;;;;;11.30;99.90;;;;;;5081207;28;19964;-89
2022/02/08 04:50:53;;;;;;;;;;;11.20;99.90;;;;;;5080175;28;20511;-90
2022/02/08 04:53:34;;;;;;;;;;;11.00;99.90;;;;;;5076231;28;20449;-90
2022/02/08 04:56:16;;;;;;;;;;;11.00;99.90;;;;;;5030260;28;20089;-89
2022/02/08 04:59:16;;;;;;;;;;;11.10;99.90;;;;;;5036190;28;19925;-88
2022/02/08 05:01:51;;;;;;;;;;;11.10;99.90;;;;;;5063549;28;19925;-90
2022/02/08 05:47:44;;;;;;;;;;;11.20;99.90;;;;;;5045181;28;19925;-88
2022/02/08 05:51:01;;;;;;;;;;;12.70;99.90;;;;;;5062371;28;19925;-88
2022/02/08 05:55:28;;;;;;;;;;;10.50;99.90;;;;;;5060408;28;19928;-90
2022/02/08 05:57:56;;;;;;;;;;;11.20;99.90;;;;;;5042292;28;19929;-88
2022/02/08 06:00:27;;;;;;;;;;;11.30;99.90;;;;;;5058314;28;19947;-88
2022/02/08 06:03:26;;;;;;;;;;;11.30;99.90;;;;;;5048348;28;19925;-89
2022/02/08 06:05:58;;;;;;;;;;;11.30;99.90;;;;;;5025284;28;19929;-88
2022/02/08 06:08:25;;;;;;;;;;;11.20;99.90;;;;;;5040838;28;19931;-88
2022/02/08 06:11:01;;;;;;;;;;;11.20;99.90;;;;;;5060766;28;19935;-87
2022/02/08 06:13:29;;;;;;;;;;;11.20;99.90;;;;;;5045211;28;20093;-90
2022/02/08 06:16:02;;;;;;;;;;;11.20;99.90;;;;;;5032372;28;19925;-88
2022/02/08 06:18:31;;;;;;;;;;;11.20;99.90;;;;;;5020598;28;19925;-89
2022/02/08 06:21:01;;;;;;;;;;;11.20;99.90;;;;;;5037868;28;19929;-89
2022/02/08 06:23:30;;;;;;;;;;;11.20;99.90;;;;;;5021565;28;19928;-88
2022/02/08 06:25:57;;;;;;;;;;;11.20;99.90;;;;;;5038387;28;19925;-89
2022/02/08 06:28:26;;;;;;;;;;;11.20;99.90;;;;;;5058270;28;19932;-90
2022/02/08 06:30:54;;;;;;;;;;;11.40;99.90;;;;;;5059183;28;19932;-88
2022/02/08 06:33:24;;;;;;;;;;;11.20;99.90;;;;;;5038368;28;19940;-90
2022/02/08 06:35:52;;;;;;;;;;;11.20;99.90;;;;;;5004231;28;19933;-89
2022/02/08 06:38:22;;;;;;;;;;;11.20;99.90;;;;;;5048900;28;19925;-89
2022/02/08 06:40:53;;;;;;;;;;;11.20;99.90;;;;;;5039524;28;19929;-89
2022/02/08 06:43:26;;;;;;;;;;;11.20;99.90;;;;;;5039240;28;19929;-88
2022/02/08 06:46:01;;;;;;;;;;;11.20;99.90;;;;;;5041745;28;20756;-89
2022/02/08 06:48:30;;;;;;;;;;;11.20;99.90;;;;;;5057629;28;19928;-88
2022/02/08 06:51:00;;;;;;;;;;;11.70;99.90;;;;;;5038721;28;19932;-89
2022/02/08 06:53:28;;;;;;;;;;;11.20;99.90;;;;;;5022109;28;19925;-89
2022/02/08 06:55:57;;;;;;;;;;;11.60;99.90;;;;;;5024257;28;19932;-87
2022/02/08 06:58:42;;;;;;;;;;;11.00;99.90;;;;;;5046257;28;19928;-90
2022/02/08 07:01:09;;;;;;;;;;;11.00;99.90;;;;;;5036739;28;19931;-91
2022/02/08 07:03:41;;;;;;;;;;;10.90;99.90;;;;;;5046484;28;19932;-90
2022/02/08 07:06:12;;;;;;;;;;;10.90;99.90;;;;;;5041139;28;19932;-89
2022/02/08 07:08:43;;;;;;;;;;;11.00;99.90;;;;;;5013017;28;19925;-90
2022/02/08 07:11:15;;;;;;;;;;;11.00;99.90;;;;;;5022530;28;20565;-88
2022/02/08 07:13:44;;;;;;;;;;;10.80;99.90;;;;;;5025052;28;19925;-89
2022/02/08 07:16:16;;;;;;;;;;;10.50;99.90;;;;;;5024110;28;19929;-88
2022/02/08 07:18:44;;;;;;;;;;;10.80;99.90;;;;;;5024528;28;19932;-89
2022/02/08 07:21:14;;;;;;;;;;;10.70;99.90;;;;;;5039803;28;19935;-88
2022/02/08 07:23:45;;;;;;;;;;;10.80;99.90;;;;;;5049453;28;19932;-89
2022/02/08 07:26:39;;;;;;;;;;;10.70;99.90;;;;;;5034150;28;19935;-90
2022/02/08 07:29:39;;;;;;;;;;;10.70;99.90;;;;;;5030357;28;19935;-90
2022/02/08 07:32:36;;;;;;;;;;;10.70;99.90;;;;;;5038633;28;19916;-88
2022/02/08 07:38:23;;;;;;;;;;;10.60;99.90;;;;;;5057707;28;19928;-90
2022/02/08 07:43:42;;;;;;;;;;;10.30;99.90;;;;;;5066005;28;19921;-90
2022/02/08 07:46:29;;;;;;;;;;;10.60;99.90;;;;;;5033885;28;19943;-89
2022/02/08 07:49:37;;;;;;;;;;;10.60;99.90;;;;;;5036784;28;19913;-88
2022/02/08 07:52:09;;;;;;;;;;;9.30;99.90;;;;;;5035443;28;19928;-89
2022/02/08 07:54:49;;;;;;;;;;;10.40;99.90;;;;;;5047742;28;19940;-91
2022/02/08 07:57:26;;;;;;;;;;;10.60;99.90;;;;;;5047976;28;20411;-90
2022/02/08 08:00:11;;;;;;;;;;;10.50;99.90;;;;;;5065740;28;19931;-90
2022/02/08 08:02:54;;;;;;;;;;;10.40;99.90;;;;;;5038370;28;19929;-88
2022/02/08 08:05:49;;;;;;;;;;;10.60;99.90;;;;;;5059961;28;19931;-89
2022/02/08 08:08:23;;;;;;;;;;;10.70;99.90;;;;;;5056136;28;19929;-89
2022/02/08 08:11:08;;;;;;;;;;;10.70;99.90;;;;;;5041075;28;19927;-87
2022/02/08 08:13:42;;;;;;;;;;;10.90;99.90;;;;;;5039047;28;19924;-90
2022/02/08 08:21:54;;;;;;;;;;;10.80;99.90;;;;;;5028042;28;19948;-87
2022/02/08 08:24:30;;;;;;;;;;;10.80;99.90;;;;;;5048887;28;19925;-87
2022/02/08 08:27:05;;;;;;;;;;;10.90;99.90;;;;;;5031043;28;19924;-91
2022/02/08 08:29:43;;;;;;;;;;;10.90;99.90;;;;;;5052429;28;19929;-87
2022/02/08 08:32:29;;;;;;;;;;;10.90;99.90;;;;;;5068276;28;19929;-90
2022/02/08 08:35:23;;;;;;;;;;;11.00;99.90;;;;;;5052071;28;19924;-86
2022/02/08 08:37:58;;;;;;;;;;;11.10;99.90;;;;;;5065481;28;19925;-88
2022/02/08 08:41:00;;;;;;;;;;;11.60;99.90;;;;;;5048546;28;19928;-89
2022/02/08 08:44:19;;;;;;;;;;;11.10;99.90;;;;;;5048953;28;19939;-88
2022/02/08 08:52:44;;;;;;;;;;;11.30;99.90;;;;;;5020673;28;19940;-89
2022/02/08 08:55:21;;;;;;;;;;;11.40;99.90;;;;;;5036739;28;19924;-89
2022/02/08 08:57:59;;;;;;;;;;;11.40;99.90;;;;;;5051911;28;19925;-92
2022/02/08 09:00:33;;;;;;;;;;;11.50;99.90;;;;;;5068410;28;19925;-90
2022/02/08 09:03:20;;;;;;;;;;;11.50;99.90;;;;;;5037272;28;19932;-88
2022/02/08 09:05:53;;;;;;;;;;;11.60;99.90;;;;;;5070616;28;19925;-91
2022/02/08 09:08:30;;;;;;;;;;;11.60;99.90;;;;;;5053703;28;19925;-86
2022/02/08 09:11:15;;;;;;;;;;;12.60;99.90;;;;;;5054138;28;19931;-90
2022/02/08 09:14:12;;;;;;;;;;;11.70;99.90;;;;;;5033555;28;19929;-87
2022/02/08 09:20:17;;;;;;;;;;;11.70;99.90;;;;;;5005668;28;19935;-88
2022/02/08 09:31:14;;;;;;;;;;;11.90;99.90;;;;;;5055690;28;19929;-90
2022/02/08 09:33:44;;;;;;;;;;;11.90;99.90;;;;;;5004135;28;19935;-88
2022/02/08 09:36:13;;;;;;;;;;;11.90;99.90;;;;;;5018389;28;19925;-88
2022/02/08 09:38:42;;;;;;;;;;;12.00;99.90;;;;;;5033621;28;19925;-90
2022/02/08 09:41:37;;;;;;;;;;;12.00;99.90;;;;;;5051260;28;19932;-90
2022/02/08 09:44:38;;;;;;;;;;;12.00;99.90;;;;;;5036270;28;19925;-88
2022/02/08 09:47:39;;;;;;;;;;;12.00;99.90;;;;;;5054034;28;19931;-88
2022/02/08 09:50:22;;;;;;;;;;;12.10;99.90;;;;;;5054487;28;19925;-91
2022/02/08 09:53:12;;;;;;;;;;;12.10;99.90;;;;;;5058722;28;19909;-90
2022/02/08 09:55:48;;;;;;;;;;;12.20;99.90;;;;;;5028683;28;19933;-89
2022/02/08 09:58:20;;;;;;;;;;;12.20;99.90;;;;;;5059017;28;19929;-89
2022/02/08 10:01:13;;;;;;;;;;;12.20;99.90;;;;;;5057119;28;19924;-91
2022/02/08 10:03:54;;;;;;;;;;;12.10;99.90;;;;;;5073964;28;20299;-92
2022/02/08 10:06:23;;;;;;;;;;;12.60;99.90;;;;;;5055078;28;19925;-89
2022/02/08 10:09:32;;;;;;;;;;;12.00;99.90;;;;;;5074796;28;19920;-89
2022/02/08 10:12:20;;;;;;;;;;;11.40;99.90;;;;;;5056349;28;19925;-89
2022/02/08 10:24:14;;;;;;;;;;;11.80;99.90;;;;;;5050526;28;19931;-90
2022/02/08 10:39:15;;;;;;;;;;;11.80;99.90;;;;;;5051004;28;19933;-89
2022/02/08 10:41:48;;;;;;;;;;;11.80;99.90;;;;;;5049139;28;19931;-89
2022/02/08 10:44:34;;;;;;;;;;;11.80;99.90;;;;;;5066343;28;19928;-89
2022/02/08 10:47:31;;;;;;;;;;;12.70;99.90;;;;;;5034235;28;19947;-89
2022/02/08 10:50:10;;;;;;;;;;;12.00;99.90;;;;;;5018459;28;19925;-90
2022/02/08 10:52:46;;;;;;;;;;;10.70;99.90;;;;;;5030547;28;19916;-88
2022/02/08 11:00:59;;;;;;;;;;;12.10;99.90;;;;;;5023097;28;19936;-85
2022/02/08 11:03:31;;;;;;;;;;;12.20;99.90;;;;;;5042926;28;19933;-89
2022/02/08 11:06:13;;;;;;;;;;;12.20;99.90;;;;;;5063802;28;19933;-88
2022/02/08 11:09:13;;;;;;;;;;;12.20;99.90;;;;;;5044663;28;20415;-88
2022/02/08 11:12:19;;;;;;;;;;;12.60;99.90;;;;;;5050515;28;19925;-89
2022/02/08 11:18:19;;;;;;;;;;;12.30;99.90;;;;;;5050954;28;19928;-88
2022/02/08 11:20:42;;;;;;;;;;;12.50;99.90;;;;;;5060066;28;19925;-89
2022/02/08 11:23:14;;;;;;;;;;;12.60;99.90;;;;;;5044015;28;19933;-87
2022/02/08 11:25:51;;;;;;;;;;;12.80;99.90;;;;;;5029884;28;19928;-91
2022/02/08 11:31:04;;;;;;;;;;;12.70;99.90;;;;;;5048961;28;19924;-89
2022/02/08 11:34:03;;;;;;;;;;;12.80;99.90;;;;;;5039504;28;19921;-88
2022/02/08 11:50:46;;;;;;;;;;;12.90;99.90;;;;;;5045345;28;19929;-86
2022/02/08 11:53:35;;;;;;;;;;;12.90;99.90;;;;;;5015966;28;19931;-87
2022/02/08 11:56:28;;;;;;;;;;;12.80;99.90;;;;;;5045744;28;19925;-89
2022/02/08 11:59:26;;;;;;;;;;;12.80;99.90;;;;;;5033723;28;19925;-88
2022/02/08 12:07:37;;;;;;;;;;;12.70;99.90;;;;;;5014035;28;19925;-87
2022/02/08 12:10:18;;;;;;;;;;;12.70;99.90;;;;;;5032355;28;19943;-87
2022/02/08 12:35:23;;;;;;;;;;;12.60;99.90;;;;;;5055219;28;19933;-86
2022/02/08 12:52:57;;;;;;;;;;;12.70;99.90;;;;;;5023485;28;19932;-85
2022/02/08 12:57:51;;;;;;;;;;;12.80;99.90;;;;;;5023464;28;19936;-86
2022/02/08 14:01:53;;;;;;;;;;;11.90;99.90;;;;;;4860665;29;19939;-87
2022/02/08 14:07:40;;;;;;;;;;;13.00;99.90;;;;;;4859725;29;19928;-88
2022/02/08 14:10:23;;;;;;;;;;;13.30;99.90;;;;;;4890079;29;19954;-88
2022/02/08 14:13:37;;;;;;;;;;;13.00;99.90;;;;;;4875411;29;19928;-87
2022/02/08 14:16:20;;;;;;;;;;;13.00;99.90;;;;;;4907169;29;19934;-88
2022/02/08 14:21:53;;;;;;;;;;;12.90;99.90;;;;;;4880046;29;19935;-88
2022/02/08 14:24:47;;;;;;;;;;;11.30;99.90;;;;;;4889464;29;19927;-87
2022/02/08 14:31:06;;;;;;;;;;;12.90;99.90;;;;;;4877279;29;19927;-87
2022/02/08 15:09:31;;;;;;;;;;;12.60;99.90;;;;;;4894100;29;19928;-89
2022/02/08 15:17:47;;;;;;;;;;;12.20;99.90;;;;;;4888473;29;19935;-91
2022/02/08 15:20:22;;;;;;;;;;;12.70;99.90;;;;;;4901591;29;19933;-91
2022/02/08 15:23:02;;;;;;;;;;;12.70;99.90;;;;;;4904314;29;19934;-89
2022/02/08 15:25:36;;;;;;;;;;;12.70;99.90;;;;;;5053456;23;19931;-88
2022/02/08 15:28:11;;;;;;;;;;;12.70;99.90;;;;;;4925586;29;19935;-90
2022/02/08 15:31:09;;;;;;;;;;;12.90;99.90;;;;;;4923573;29;19938;-90
2022/02/08 15:33:41;;;;;;;;;;;12.60;99.90;;;;;;4918954;29;19935;-89
2022/02/08 15:36:09;;;;;;;;;;;12.60;99.90;;;;;;4905321;29;19938;-87
2022/02/08 15:38:52;;;;;;;;;;;12.60;99.90;;;;;;4905463;29;19931;-89
2022/02/08 15:41:28;;;;;;;;;;;12.60;99.90;;;;;;4909668;29;19927;-89
2022/02/08 15:43:59;;;;;;;;;;;12.60;99.90;;;;;;4919745;29;19928;-89
2022/02/08 15:46:31;;;;;;;;;;;12.60;99.90;;;;;;4923378;29;19937;-87
2022/02/08 15:49:03;;;;;;;;;;;12.60;99.90;;;;;;4922128;29;19938;-89
2022/02/08 15:51:42;;;;;;;;;;;12.60;99.90;;;;;;4908164;29;19962;-88
2022/02/08 15:58:26;;;;;;;;;;;12.50;99.90;;;;;;4886272;29;19950;-89
2022/02/08 16:10:11;;;;;;;;;;;12.00;99.90;;;;;;4930197;29;19916;-88
2022/02/08 16:13:21;;;;;;;;;;;12.50;99.90;;;;;;4918721;29;19923;-87
2022/02/08 16:24:54;;;;;;;;;;;12.80;99.90;;;;;;4938399;29;19921;-86
2022/02/08 16:27:43;;;;;;;;;;;12.40;99.90;;;;;;4936750;29;19931;-88
2022/02/08 16:58:47;;;;;;;;;;;12.20;99.90;;;;;;4944290;29;19931;-92
2022/02/08 17:01:26;;;;;;;;;;;12.20;99.90;;;;;;4926015;29;19972;-89
2022/02/08 17:04:00;;;;;;;;;;;12.30;99.90;;;;;;4927490;29;19928;-90
2022/02/08 17:06:28;;;;;;;;;;;12.10;99.90;;;;;;4939718;29;20034;-90
2022/02/08 17:09:13;;;;;;;;;;;12.10;99.90;;;;;;4914546;29;19935;-89
2022/02/08 17:11:51;;;;;;;;;;;13.20;99.90;;;;;;4921826;29;19931;-90
2022/02/08 17:17:51;;;;;;;;;;;12.00;99.90;;;;;;4926053;29;20413;-90
2022/02/08 17:47:46;;;;;;;;;;;11.70;99.90;;;;;;4905075;29;19935;-89
2022/02/08 17:50:15;;;;;;;;;;;11.80;99.90;;;;;;4927558;29;20423;-91
2022/02/08 17:52:48;;;;;;;;;;;11.80;99.90;;;;;;4920351;29;19934;-90
2022/02/08 17:55:18;;;;;;;;;;;11.90;99.90;;;;;;4912720;29;20495;-90
2022/02/08 17:57:52;;;;;;;;;;;13.30;99.90;;;;;;4926702;29;19931;-90
2022/02/08 18:00:32;;;;;;;;;;;11.80;99.90;;;;;;4936558;29;19932;-91
2022/02/08 18:03:04;;;;;;;;;;;11.80;99.90;;;;;;4911131;29;19927;-90
2022/02/08 18:05:34;;;;;;;;;;;11.80;99.90;;;;;;4911677;29;19950;-91
2022/02/08 18:08:02;;;;;;;;;;;11.80;99.90;;;;;;4925285;29;19927;-91
2022/02/08 18:10:48;;;;;;;;;;;12.00;99.90;;;;;;4926519;29;19927;-91
2022/02/08 18:13:29;;;;;;;;;;;11.80;99.90;;;;;;4896179;29;19935;-93
2022/02/08 18:16:06;;;;;;;;;;;12.10;99.90;;;;;;4940391;29;19931;-91
2022/02/08 18:18:45;;;;;;;;;;;11.80;99.90;;;;;;4927238;29;19938;-91
2022/02/08 18:21:28;;;;;;;;;;;11.80;99.90;;;;;;4940135;29;19931;-90
2022/02/08 18:24:44;;;;;;;;;;;11.90;99.90;;;;;;4898753;29;19931;-93
2022/02/08 19:19:02;;;;;;;;;;;11.70;99.90;;;;;;4909496;29;19931;-90
2022/02/08 19:21:45;;;;;;;;;;;11.60;99.90;;;;;;4915483;29;19916;-92
2022/02/08 19:24:19;;;;;;;;;;;11.50;99.90;;;;;;4919501;29;20168;-91
2022/02/08 19:26:47;;;;;;;;;;;11.50;99.90;;;;;;4902753;29;19938;-90
2022/02/08 19:29:23;;;;;;;;;;;11.50;99.90;;;;;;4892262;29;19930;-91
2022/02/08 19:31:55;;;;;;;;;;;11.50;99.90;;;;;;4907005;29;19935;-91
2022/02/08 19:34:24;;;;;;;;;;;11.50;99.90;;;;;;4905146;29;19946;-91
2022/02/08 19:37:05;;;;;;;;;;;11.50;99.90;;;;;;4913729;29;19927;-90
2022/02/08 19:39:34;;;;;;;;;;;11.50;99.90;;;;;;4897868;29;19936;-91
2022/02/08 19:42:05;;;;;;;;;;;11.60;99.90;;;;;;4909351;29;19931;-92
2022/02/08 19:44:37;;;;;;;;;;;11.40;99.90;;;;;;4909829;29;20017;-91
2022/02/08 19:47:07;;;;;;;;;;;11.30;99.90;;;;;;4905964;29;19943;-90
2022/02/08 19:49:48;;;;;;;;;;;11.40;99.90;;;;;;4890830;29;19931;-90
2022/02/08 19:52:25;;;;;;;;;;;11.40;99.90;;;;;;4920804;29;20722;-94
2022/02/08 19:57:57;;;;;;;;;;;11.40;99.90;;;;;;4901623;29;19931;-90
2022/02/08 20:00:32;;;;;;;;;;;11.40;99.90;;;;;;4892434;29;19927;-91
2022/02/08 20:03:08;;;;;;;;;;;11.30;99.90;;;;;;4905588;29;19931;-90
2022/02/08 20:05:45;;;;;;;;;;;11.30;99.90;;;;;;4910161;29;19931;-89
2022/02/08 20:08:18;;;;;;;;;;;11.40;99.90;;;;;;4891485;29;19931;-89
2022/02/08 20:10:53;;;;;;;;;;;11.30;99.90;;;;;;4925256;29;19944;-91
2022/02/08 20:13:24;;;;;;;;;;;11.60;99.90;;;;;;4908550;29;19927;-90
2022/02/08 20:15:54;;;;;;;;;;;11.30;99.90;;;;;;4907552;29;19935;-90
2022/02/08 20:18:50;;;;;;;;;;;11.30;99.90;;;;;;4899878;29;19927;-89
2022/02/08 20:21:29;;;;;;;;;;;11.30;99.90;;;;;;4891828;29;19935;-90
2022/02/08 20:24:04;;;;;;;;;;;11.30;99.90;;;;;;4893154;29;20025;-90
2022/02/08 20:27:05;;;;;;;;;;;11.30;99.90;;;;;;4908780;29;19927;-88
2022/02/08 20:29:38;;;;;;;;;;;11.20;99.90;;;;;;4928208;29;19934;-89
2022/02/08 20:32:24;;;;;;;;;;;11.20;99.90;;;;;;4923899;29;19931;-90
2022/02/08 20:34:56;;;;;;;;;;;11.30;99.90;;;;;;4894417;29;19931;-91
2022/02/08 20:37:41;;;;;;;;;;;11.10;99.90;;;;;;4904252;29;19935;-89
2022/02/08 20:40:13;;;;;;;;;;;11.00;99.90;;;;;;4894914;29;19927;-91
2022/02/08 20:42:43;;;;;;;;;;;11.00;99.90;;;;;;4922520;29;19915;-89
2022/02/08 20:45:21;;;;;;;;;;;11.00;99.90;;;;;;4928306;29;19941;-88
2022/02/08 20:47:50;;;;;;;;;;;11.00;99.90;;;;;;4929018;29;19931;-90
2022/02/08 20:50:38;;;;;;;;;;;11.00;99.90;;;;;;4913314;29;19935;-90
2022/02/08 20:53:23;;;;;;;;;;;11.00;99.90;;;;;;4917752;29;19935;-90
2022/02/08 20:56:08;;;;;;;;;;;10.90;99.90;;;;;;4913920;29;19927;-91
2022/02/08 21:01:34;;;;;;;;;;;10.80;99.90;;;;;;4927856;29;19928;-89
2022/02/08 21:06:47;;;;;;;;;;;10.80;99.90;;;;;;4927223;29;19927;-91
2022/02/08 21:09:24;;;;;;;;;;;10.70;99.90;;;;;;4927494;29;19927;-90
2022/02/08 21:12:27;;;;;;;;;;;10.80;99.90;;;;;;4914829;29;19938;-91
2022/02/08 21:14:58;;;;;;;;;;;10.80;99.90;;;;;;4915181;29;19931;-90
2022/02/08 21:17:35;;;;;;;;;;;10.70;99.90;;;;;;4927365;29;19939;-91
2022/02/08 21:20:29;;;;;;;;;;;10.70;99.90;;;;;;4917227;29;20100;-90
2022/02/08 21:23:02;;;;;;;;;;;10.70;99.90;;;;;;4912715;29;19923;-89
2022/02/08 21:25:33;;;;;;;;;;;10.70;99.90;;;;;;4929332;29;19939;-90
2022/02/08 21:28:08;;;;;;;;;;;10.70;99.90;;;;;;4925618;29;19931;-89
2022/02/08 21:43:32;;;;;;;;;;;10.60;99.90;;;;;;4910311;29;20399;-90
2022/02/08 21:52:32;;;;;;;;;;;10.70;99.90;;;;;;4865354;29;19935;-90
2022/02/08 21:55:28;;;;;;;;;;;10.50;99.90;;;;;;4892287;29;19928;-92
2022/02/08 21:58:24;;;;;;;;;;;10.40;99.90;;;;;;4882019;29;19935;-90
2022/02/08 22:01:09;;;;;;;;;;;10.40;99.90;;;;;;4887014;29;19934;-89
2022/02/08 22:03:36;;;;;;;;;;;10.30;99.90;;;;;;4896190;29;19927;-89
2022/02/08 22:06:20;;;;;;;;;;;10.50;99.90;;;;;;4918786;29;19923;-90
2022/02/08 22:08:56;;;;;;;;;;;10.30;99.90;;;;;;4917748;29;20318;-88
2022/02/08 22:23:57;;;;;;;;;;;10.10;99.90;;;;;;4911280;29;19934;-89
2022/02/08 22:30:25;;;;;;;;;;;10.10;99.90;;;;;;4923527;29;19927;-89
2022/02/08 22:32:57;;;;;;;;;;;10.10;99.90;;;;;;4931102;29;19927;-89
2022/02/08 22:35:35;;;;;;;;;;;10.10;99.90;;;;;;4902073;29;19915;-90
2022/02/08 22:38:32;;;;;;;;;;;8.80;99.90;;;;;;4934380;29;19924;-89
2022/02/08 22:41:17;;;;;;;;;;;10.10;99.90;;;;;;4921737;29;19929;-89
2022/02/08 22:43:52;;;;;;;;;;;10.10;99.90;;;;;;4914272;29;19935;-89
2022/02/08 22:46:24;;;;;;;;;;;10.10;99.90;;;;;;4902326;29;19933;-90
2022/02/08 22:48:53;;;;;;;;;;;10.20;99.90;;;;;;4915194;29;19929;-89
2022/02/08 22:51:23;;;;;;;;;;;10.20;99.90;;;;;;4918147;29;19945;-90
2022/02/08 22:54:01;;;;;;;;;;;10.20;99.90;;;;;;4913263;29;19938;-89
2022/02/08 22:56:32;;;;;;;;;;;10.30;99.90;;;;;;4925214;29;19927;-89
2022/02/08 22:59:08;;;;;;;;;;;10.20;99.90;;;;;;4916699;29;19933;-90
2022/02/08 23:01:51;;;;;;;;;;;9.60;99.90;;;;;;4881061;29;19931;-90
2022/02/08 23:04:23;;;;;;;;;;;10.20;99.90;;;;;;4911959;29;19928;-91
2022/02/08 23:07:06;;;;;;;;;;;10.20;99.90;;;;;;4910152;29;19934;-90
2022/02/08 23:09:49;;;;;;;;;;;10.10;99.90;;;;;;4899958;29;19927;-90
2022/02/08 23:12:55;;;;;;;;;;;10.10;99.90;;;;;;4928829;29;19927;-91
2022/02/08 23:15:55;;;;;;;;;;;10.40;99.90;;;;;;4886607;29;19928;-89
2022/02/08 23:38:39;;;;;;;;;;;10.00;99.90;;;;;;4920122;29;19927;-90
2022/02/08 23:41:09;;;;;;;;;;;10.00;99.90;;;;;;4930170;29;19930;-91
2022/02/08 23:43:41;;;;;;;;;;;10.00;99.90;;;;;;4935247;29;19931;-90
2022/02/08 23:46:11;;;;;;;;;;;10.00;99.90;;;;;;4937149;29;19918;-89
2022/02/08 23:51:38;;;;;;;;;;;10.10;99.90;;;;;;4946007;29;19931;-91
2022/02/08 23:54:22;;;;;;;;;;;10.10;99.90;;;;;;4939448;29;19927;-89
2022/02/08 23:57:09;;;;;;;;;;;10.10;99.90;;;;;;4922528;29;19923;-90
2022/02/08 23:59:49;;;;;;;;;;;10.10;99.90;;;;;;4905765;29;19927;-90
